Terminal Aerodrome Forecast
Issued by NWS Glasgow, MT

Home | Current Version | Previous Version | Text Only | Print | Product List | Glossary On
Versions: 1 2 3 4 5 6 7 8 9 10 11 12 13
921
FTUS45 KGGW 210520
TAFGGW
TAF
KGGW 210520Z 2106/2206 11008KT P6SM SKC
     FM212300 19011G19KT P6SM SCT130
     FM220100 23012G20KT P6SM BKN100
     FM220200 28013G24KT P6SM BKN090=

USA.gov is the U.S. government's official web portal to all federal, state and local government web resources and services.